Airfield :
LOGIN :

Register | Disclaimer

   EN    FR    IT 

 










Legend :    VFR   Marginal VFR   IFR   Intensive IFR   Very Intensive IFR
Visi :
Ceiling :
>= 8 km
>= 3000ft
5 to 8 km
1000 to 3000 ft
1500m to 5 km
500 to 1000 ft
800 to 1500m
200 to 500 ft
< 800m
< 200 ft
Symbols :   Thunderstorms  Fog  Heavy snow  Heavy precipitations  Wind > 20 kt
SIGMETs :     Misc.  Thunderstorms  Icing  Turbulence  Mountain Waves  Volcanic Ashes






- Airport Elevation : 6 ft
- IATA code : PSA


LIRP - Galileo Galilei Pisa

CURRENT METAR :
  • 191715Z 27010KT 9999 FEW020 SCT030 12/10 Q1018 NOSIG

EXPIRED METARs :
  • 191645Z 27008KT 9999 SCT020 SCT030 12/10 Q1018 NOSIG
  • 191615Z 27008KT 9999 SCT020 12/09 Q1018 NOSIG
  • 191545Z 27012KT 9999 SCT020 13/09 Q1018 NOSIG
  • 191515Z 26012KT 9999 SCT020 13/10 Q1018 NOSIG
  • 191445Z 26013KT 9999 FEW020 SCT030 13/10 Q1018 NOSIG

TAF TAF LIRP
Valid from the 19 at 18:00 until the 20 at 18:00 UTC


191700Z 1918/2018 28010KT 9999 SCT025
BECMG 1919/1921 06005KT
PROB40
TEMPO 1922/2007 5000 BR



MET'MAP, your aeronautical weather chart ! - Copyright ORBIFLY December 2007 - Disclaimer

ORBIFLY MET'MAP TEAM :

Programming & Development : Alexandra Zaïnal
Concept & original design : Baudouin d'Aumeries
Assistance for programming : Marc-Olivier Méhu
Technical & hardware support : Manuel Goepfert

Contact : metmap@orbifly.com




SOURCES & CREDITS :

   NOAA